Avalon, Pennsylvania
Current Conditions -  °F | °C
As of 2:51 PM on Sunday 23 Nov 2014 (Local Time) from KPIT Reporting Station
Overcast Overcast  
Wind Chill: 62°   Ceiling: 22000
Heat Index: 62°   Visibility: 10mi
Dew Point: 45°   Wind: 10mph
Humidity: 53%   Direction: 130°SE
Pressure: 29.89"   Gusts: NA
Location:  40.5069°N, 80.0715°W
Report Text: KPIT 231951Z 13009KT 10SM SCT042 SCT130 OVC220 17/07 A2989 RMK AO2 SLP129 T01670072
Loading
Personal Weather Stations






























Interactive Weather Map New forecast layout! Learn more

10-Day Weather Forecast

Advertisements
Track Severe Weather on mobile